Time;durP1;ratioP1;P1;durP2;ratioP2;P2;SDS_P1;SDS_P2;PMS_P1;PMS_P2;Temp;Humidity;BMP_temperature;BMP_pressure;BME280_temperature;BME280_humidity;BME280_pressure;Samples;Min_cycle;Max_cycle;Signal;HPM_P1;HPM_P2
2023/10/14 00:01:13;;;;;;;12.98;4.05;;;;;;;19.87;100.00;98832.44;5028125;28;20037;-69
2023/10/14 00:03:45;;;;;;;8.18;3.72;;;;;;;19.99;100.00;98828.00;5026287;28;20041;-69
2023/10/14 00:06:12;;;;;;;9.13;3.40;;;;;;;20.10;100.00;98841.91;5041078;28;20476;-69
2023/10/14 00:11:43;;;;;;;9.52;3.95;;;;;;;20.14;100.00;98826.09;4996236;28;20555;-69
2023/10/14 00:14:16;;;;;;;6.75;3.88;;;;;;;20.09;100.00;98837.66;5025898;28;20052;-69
2023/10/14 00:16:48;;;;;;;8.25;3.78;;;;;;;20.09;100.00;98826.72;5029873;28;20034;-69
2023/10/14 00:19:14;;;;;;;11.20;3.53;;;;;;;20.11;100.00;98832.50;5030235;28;20037;-69
2023/10/14 00:21:42;;;;;;;9.10;4.35;;;;;;;20.07;100.00;98829.94;5021577;28;20030;-68
2023/10/14 00:24:08;;;;;;;6.22;3.00;;;;;;;20.10;100.00;98828.22;5029408;28;20037;-69
2023/10/14 00:26:34;;;;;;;7.68;3.72;;;;;;;20.16;100.00;98922.06;5032481;28;20079;-69
2023/10/14 00:31:41;;;;;;;2.35;0.95;;;;;;;19.86;99.53;98934.03;5030420;28;20029;-68
2023/10/14 00:34:11;;;;;;;1.83;0.80;;;;;;;19.38;95.97;98927.56;5029987;28;20037;-69
2023/10/14 00:36:36;;;;;;;0.98;0.65;;;;;;;19.26;97.09;98929.19;5030747;28;20050;-69
2023/10/14 00:39:24;;;;;;;1.27;0.32;;;;;;;19.04;95.59;98922.38;5029507;28;20036;-70
2023/10/14 00:41:50;;;;;;;0.50;0.20;;;;;;;18.93;95.62;98922.81;5029500;28;20043;-68
2023/10/14 00:44:17;;;;;;;0.63;0.40;;;;;;;18.75;95.46;98923.56;5032780;28;20276;-69
2023/10/14 00:46:52;;;;;;;0.47;0.20;;;;;;;18.76;95.18;98927.03;5029747;28;20161;-69
2023/10/14 00:49:35;;;;;;;1.00;0.20;;;;;;;18.63;95.37;98934.59;5027006;28;20453;-69
2023/10/14 00:52:10;;;;;;;0.88;0.30;;;;;;;18.48;95.83;98948.06;5031808;28;20048;-69
2023/10/14 00:54:58;;;;;;;0.93;0.32;;;;;;;18.50;95.23;98958.50;5026580;28;20040;-69
2023/10/14 00:57:26;;;;;;;3.58;0.30;;;;;;;18.41;95.61;98955.69;5032798;28;20652;-70
2023/10/14 00:59:55;;;;;;;0.80;0.15;;;;;;;18.45;95.45;98967.25;5028906;28;20034;-69
2023/10/14 01:02:30;;;;;;;1.17;0.38;;;;;;;18.42;95.18;98952.56;5028457;28;20586;-68
2023/10/14 01:04:56;;;;;;;0.20;0.13;;;;;;;18.32;95.56;98955.66;5029471;28;20140;-68
2023/10/14 01:07:24;;;;;;;0.20;0.10;;;;;;;18.38;95.06;98954.66;5030527;28;20428;-68
2023/10/14 01:09:53;;;;;;;0.68;0.20;;;;;;;18.46;94.91;98963.34;5045066;28;20041;-69
2023/10/14 01:12:27;;;;;;;0.30;0.20;;;;;;;18.38;93.66;98951.16;5028733;28;20040;-69
2023/10/14 01:14:54;;;;;;;0.10;0.10;;;;;;;18.23;95.42;98942.00;5010599;28;20029;-68
2023/10/14 01:17:30;;;;;;;0.32;0.20;;;;;;;18.14;96.01;98925.63;5029460;28;20037;-69
2023/10/14 01:20:00;;;;;;;1.13;0.40;;;;;;;18.02;96.54;98925.25;5029192;28;20030;-69
2023/10/14 01:22:27;;;;;;;0.20;0.20;;;;;;;18.06;96.41;98921.66;5030175;28;20037;-69
2023/10/14 01:24:57;;;;;;;1.27;0.20;;;;;;;18.02;96.61;98929.97;5028087;28;20486;-69
2023/10/14 01:27:33;;;;;;;0.40;0.30;;;;;;;18.01;96.39;98952.97;5028404;28;20544;-70
2023/10/14 01:29:59;;;;;;;0.80;0.30;;;;;;;18.14;96.46;98956.34;5025776;28;20510;-69
2023/10/14 01:32:41;;;;;;;1.17;0.45;;;;;;;18.19;95.70;98955.00;5027385;28;20037;-70
2023/10/14 01:35:22;;;;;;;0.82;0.17;;;;;;;18.19;95.19;98960.47;5027991;28;20042;-70
2023/10/14 01:37:48;;;;;;;0.13;0.13;;;;;;;18.11;95.01;98949.06;5027778;28;20037;-69
2023/10/14 01:42:49;;;;;;;1.70;0.30;;;;;;;18.12;94.68;98955.28;5027120;28;20026;-70
2023/10/14 01:45:20;;;;;;;1.40;0.22;;;;;;;18.13;95.01;98956.78;5027849;28;20022;-69
2023/10/14 01:48:00;;;;;;;2.53;0.20;;;;;;;18.10;93.69;98974.78;5027669;28;20029;-70
2023/10/14 01:50:26;;;;;;;0.93;0.30;;;;;;;18.02;93.33;98968.13;5003358;28;20067;-69
2023/10/14 01:52:53;;;;;;;1.30;0.30;;;;;;;17.84;93.41;98971.50;5027565;28;20030;-70
2023/10/14 01:55:20;;;;;;;1.17;0.30;;;;;;;17.81;92.95;98980.53;5023290;28;20059;-69
2023/10/14 01:57:47;;;;;;;1.02;0.10;;;;;;;17.77;93.00;98976.41;5027568;28;20035;-70
2023/10/14 02:00:35;;;;;;;2.05;0.28;;;;;;;17.69;93.43;98986.81;5024600;28;20029;-68
2023/10/14 02:03:06;;;;;;;0.30;0.20;;;;;;;17.60;93.10;98970.41;5010089;28;20076;-69
2023/10/14 02:05:40;;;;;;;1.23;0.10;;;;;;;17.52;93.62;98977.31;5026891;28;20018;-68
2023/10/14 02:08:16;;;;;;;0.30;0.20;;;;;;;17.44;94.60;98981.44;5047383;28;20033;-68
2023/10/14 02:10:47;;;;;;;0.40;0.40;;;;;;;17.32;95.32;98990.44;5023928;28;20468;-67
2023/10/14 02:13:21;;;;;;;0.43;0.40;;;;;;;17.32;95.12;98993.16;5028318;28;20021;-70
2023/10/14 02:15:47;;;;;;;0.30;0.20;;;;;;;17.30;95.45;98994.78;5029663;28;20072;-70
2023/10/14 02:18:13;;;;;;;1.30;0.30;;;;;;;17.37;95.05;99000.75;5029254;28;20493;-70
2023/10/14 02:20:56;;;;;;;0.50;0.22;;;;;;;17.41;94.68;99014.22;5029256;28;20045;-70
2023/10/14 02:23:23;;;;;;;3.53;0.63;;;;;;;17.40;94.75;99024.34;5029457;28;20038;-69
2023/10/14 02:25:55;;;;;;;2.03;0.50;;;;;;;17.29;95.04;99040.28;5007463;28;20029;-71
2023/10/14 02:28:24;;;;;;;1.02;0.30;;;;;;;17.29;94.86;99043.00;5027998;28;20025;-69
2023/10/14 02:30:52;;;;;;;1.13;0.40;;;;;;;17.28;94.65;99049.66;5025926;28;20033;-70
2023/10/14 02:33:22;;;;;;;0.50;0.40;;;;;;;17.27;95.00;99060.97;5010485;28;20028;-70
2023/10/14 02:35:48;;;;;;;2.90;0.30;;;;;;;17.27;95.24;99050.84;5031141;28;20398;-69
2023/10/14 02:38:17;;;;;;;1.13;0.47;;;;;;;17.29;95.36;99053.88;5027511;28;20026;-70
2023/10/14 02:40:49;;;;;;;0.65;0.32;;;;;;;17.34;95.26;99060.75;5030431;28;20032;-69
2023/10/14 02:43:16;;;;;;;1.63;0.35;;;;;;;17.25;95.73;99064.13;5025488;28;20029;-69
2023/10/14 02:45:45;;;;;;;0.85;0.50;;;;;;;17.23;95.65;99065.78;5027811;28;20032;-70
2023/10/14 02:48:11;;;;;;;3.60;0.70;;;;;;;17.28;95.96;99076.88;5026139;28;20057;-68
2023/10/14 02:50:37;;;;;;;0.45;0.30;;;;;;;17.23;95.86;99074.69;5027390;28;20063;-68
2023/10/14 02:53:06;;;;;;;0.30;0.30;;;;;;;17.24;95.66;99070.00;5026101;28;20036;-69
2023/10/14 02:55:56;;;;;;;1.83;0.50;;;;;;;17.18;95.33;99077.97;5028178;28;20573;-69
2023/10/14 02:58:23;;;;;;;1.65;0.40;;;;;;;17.17;95.10;99077.19;5029145;28;20041;-69
2023/10/14 03:00:58;;;;;;;0.60;0.50;;;;;;;17.13;95.30;99079.28;5028090;28;20615;-69
2023/10/14 03:03:24;;;;;;;0.73;0.20;;;;;;;17.10;95.34;99076.66;5027444;28;20440;-69
2023/10/14 03:05:52;;;;;;;0.93;0.22;;;;;;;17.14;95.02;99086.25;5029827;28;20026;-69
2023/10/14 03:08:21;;;;;;;2.20;0.50;;;;;;;17.07;94.76;99102.03;5029172;28;20035;-68
2023/10/14 03:10:55;;;;;;;0.40;0.20;;;;;;;17.01;94.80;99099.09;5028275;28;20057;-70
2023/10/14 03:13:22;;;;;;;0.70;0.50;;;;;;;16.90;94.79;99125.09;5027579;28;20030;-70
2023/10/14 03:15:52;;;;;;;1.35;0.30;;;;;;;16.84;95.25;99138.47;5028797;28;20032;-69
2023/10/14 03:18:18;;;;;;;0.80;0.10;;;;;;;16.84;95.52;99152.06;5028038;28;20068;-69
2023/10/14 03:23:27;;;;;;;1.40;0.32;;;;;;;16.81;95.10;99174.69;5025686;28;20103;-70
2023/10/14 03:26:05;;;;;;;2.40;0.80;;;;;;;16.79;94.79;99168.16;4997928;28;20486;-69
2023/10/14 03:28:30;;;;;;;1.92;0.45;;;;;;;16.78;94.92;99172.09;5024798;28;20083;-69
2023/10/14 03:30:58;;;;;;;3.33;0.35;;;;;;;16.70;94.74;99171.53;5027090;28;20037;-67
2023/10/14 03:33:29;;;;;;;3.78;0.73;;;;;;;16.70;93.83;99165.31;5030100;28;20555;-69
2023/10/14 03:36:03;;;;;;;0.32;0.25;;;;;;;16.66;94.06;99161.94;5027069;28;20452;-69
2023/10/14 03:43:44;;;;;;;0.85;0.47;;;;;;;16.66;93.96;99176.31;5027689;28;20029;-69
2023/10/14 03:46:14;;;;;;;0.80;0.30;;;;;;;16.60;93.75;99188.91;5027059;28;20462;-69
2023/10/14 03:48:47;;;;;;;2.47;0.10;;;;;;;16.50;94.06;99189.94;5029766;28;20116;-68
2023/10/14 03:51:30;;;;;;;1.92;0.25;;;;;;;16.43;94.16;99189.34;5027018;28;20109;-69
2023/10/14 03:53:57;;;;;;;2.05;0.22;;;;;;;16.42;93.66;99199.47;5023484;28;20034;-68
2023/10/14 03:56:29;;;;;;;0.20;0.20;;;;;;;16.39;93.91;99213.91;5029820;28;20022;-69
2023/10/14 03:58:55;;;;;;;4.88;0.75;;;;;;;16.34;94.08;99225.28;5029338;28;20051;-70
2023/10/14 04:01:29;;;;;;;2.05;0.85;;;;;;;16.23;94.35;99239.16;5033463;28;20033;-70
2023/10/14 04:03:54;;;;;;;1.40;0.90;;;;;;;16.16;94.60;99233.91;5032142;28;20120;-69
2023/10/14 04:06:20;;;;;;;0.65;0.22;;;;;;;16.19;94.18;99238.50;5026599;28;20109;-69
2023/10/14 04:08:50;;;;;;;2.42;0.22;;;;;;;16.15;94.59;99245.19;5032915;28;20501;-68
2023/10/14 04:11:25;;;;;;;0.95;0.40;;;;;;;16.06;94.19;99248.53;5033767;28;20064;-69
2023/10/14 04:13:58;;;;;;;4.70;0.57;;;;;;;16.08;94.71;99248.88;5030955;28;20037;-69
2023/10/14 04:16:47;;;;;;;2.45;0.63;;;;;;;16.14;94.28;99249.13;5032334;28;20140;-69
2023/10/14 04:19:44;;;;;;;3.15;0.50;;;;;;;16.12;94.29;99249.50;5030393;28;20029;-68
2023/10/14 04:31:00;;;;;;;2.78;0.75;;;;;;;15.98;93.76;99270.84;5027818;28;20092;-68
2023/10/14 04:35:57;;;;;;;1.30;1.10;;;;;;;15.95;94.01;99280.59;5031479;28;20077;-69
2023/10/14 04:38:28;;;;;;;;;;;;;;;15.94;93.47;99295.38;5032411;28;20124;-68
2023/10/14 04:40:54;;;;;;;1.17;0.28;;;;;;;15.91;93.36;99304.34;5030551;28;19917;-68
2023/10/14 04:48:35;;;;;;;1.63;0.40;;;;;;;15.73;94.39;99317.59;5042157;28;20669;-68
2023/10/14 04:51:15;;;;;;;0.20;0.20;;;;;;;15.77;94.19;99322.94;5039773;28;20136;-70
2023/10/14 04:53:49;;;;;;;0.60;0.30;;;;;;;15.77;94.33;99322.94;5028717;28;20064;-67
2023/10/14 04:56:29;;;;;;;3.17;0.50;;;;;;;15.74;94.51;99338.09;5031134;28;20405;-68
2023/10/14 04:58:55;;;;;;;1.98;0.38;;;;;;;15.66;94.65;99335.97;5026147;28;20442;-68
2023/10/14 05:01:24;;;;;;;1.42;0.50;;;;;;;15.65;94.47;99331.72;5031910;28;20145;-69
2023/10/14 05:03:55;;;;;;;2.20;0.40;;;;;;;15.65;95.01;99342.59;5029985;28;20037;-68
2023/10/14 05:06:21;;;;;;;;;;;;;;;15.62;94.41;99348.88;5030415;28;20033;-68
2023/10/14 05:08:51;;;;;;;1.55;0.68;;;;;;;15.58;95.36;99348.16;5029227;28;19913;-69
2023/10/14 05:11:18;;;;;;;2.30;0.55;;;;;;;15.61;95.08;99369.81;5029880;28;20033;-69
2023/10/14 05:16:30;;;;;;;1.35;0.43;;;;;;;15.63;94.55;99372.09;5036445;28;20129;-69
2023/10/14 05:19:11;;;;;;;3.05;0.30;;;;;;;15.63;94.99;99378.28;5027337;28;20100;-69
2023/10/14 05:21:37;;;;;;;0.52;0.30;;;;;;;15.56;94.59;99389.31;5030753;28;20029;-68
2023/10/14 05:24:09;;;;;;;0.40;0.30;;;;;;;15.56;94.56;99383.09;5028826;28;20846;-68
2023/10/14 05:26:45;;;;;;;1.02;0.47;;;;;;;15.51;94.57;99391.72;5030355;28;20056;-69
2023/10/14 05:29:17;;;;;;;1.27;0.43;;;;;;;15.46;94.64;99390.28;5027924;28;20041;-69
2023/10/14 05:31:47;;;;;;;1.00;0.40;;;;;;;15.50;94.53;99407.25;5027770;28;20076;-70
2023/10/14 05:34:13;;;;;;;0.95;0.40;;;;;;;15.55;94.79;99409.47;5027973;28;20532;-68
2023/10/14 05:36:39;;;;;;;2.95;0.20;;;;;;;15.56;94.02;99424.59;5029224;28;20069;-68
2023/10/14 05:39:06;;;;;;;3.50;0.57;;;;;;;15.54;93.84;99435.09;5028732;28;20068;-69
2023/10/14 05:41:33;;;;;;;0.20;0.20;;;;;;;15.56;94.35;99429.25;5023884;28;20032;-69
2023/10/14 05:43:59;;;;;;;1.50;0.38;;;;;;;15.57;94.11;99434.25;5029791;28;20044;-68
2023/10/14 05:46:24;;;;;;;2.30;0.47;;;;;;;15.60;93.88;99438.81;5030480;28;20036;-68
2023/10/14 05:48:53;;;;;;;0.85;0.30;;;;;;;15.61;93.65;99439.59;5025318;28;20033;-68
2023/10/14 05:51:21;;;;;;;5.05;0.52;;;;;;;15.58;93.55;99449.34;5030023;28;20033;-68
2023/10/14 05:53:47;;;;;;;0.75;0.40;;;;;;;15.58;92.99;99451.31;5028594;28;20076;-68
2023/10/14 05:56:14;;;;;;;1.48;0.32;;;;;;;15.58;93.03;99456.72;5029944;28;20509;-68
2023/10/14 05:58:48;;;;;;;2.05;0.32;;;;;;;15.55;92.57;99466.47;5013847;28;20032;-68
2023/10/14 06:01:16;;;;;;;1.85;0.50;;;;;;;15.54;91.77;99467.66;5028238;28;20033;-66
2023/10/14 06:03:42;;;;;;;1.00;0.30;;;;;;;15.44;91.25;99474.03;5023690;28;20124;-68
2023/10/14 06:06:09;;;;;;;4.25;0.30;;;;;;;15.32;91.22;99474.63;5028241;28;20109;-69
2023/10/14 06:08:37;;;;;;;1.45;0.55;;;;;;;15.36;91.26;99480.75;5027674;28;20083;-68
2023/10/14 06:11:05;;;;;;;0.85;0.20;;;;;;;15.28;90.58;99495.63;5030716;28;20061;-69
2023/10/14 06:13:31;;;;;;;5.22;0.63;;;;;;;15.20;90.79;99494.22;5025349;28;20033;-68
2023/10/14 06:16:00;;;;;;;2.05;0.50;;;;;;;15.27;90.71;99507.66;5031546;28;20049;-69
2023/10/14 06:18:26;;;;;;;0.50;0.30;;;;;;;15.22;90.66;99505.41;5024589;28;20071;-69
2023/10/14 06:20:53;;;;;;;3.35;0.70;;;;;;;15.19;90.79;99504.28;5029717;28;20116;-67
2023/10/14 06:23:19;;;;;;;3.55;0.55;;;;;;;15.15;91.22;99522.59;5026722;28;20046;-70
2023/10/14 06:25:45;;;;;;;2.83;0.38;;;;;;;15.07;90.78;99517.69;5029038;28;20092;-67
2023/10/14 06:28:11;;;;;;;0.40;0.40;;;;;;;15.05;91.80;99528.19;5026226;28;20151;-69
2023/10/14 06:30:37;;;;;;;2.92;0.70;;;;;;;15.02;92.02;99534.44;5026233;28;20767;-68
2023/10/14 06:33:05;;;;;;;7.43;0.80;;;;;;;15.08;92.01;99535.47;5029583;28;20037;-69
2023/10/14 06:35:32;;;;;;;0.32;0.22;;;;;;;15.09;91.13;99548.63;5028460;28;21260;-68
2023/10/14 06:38:03;;;;;;;4.03;0.40;;;;;;;15.03;90.64;99544.84;5028628;28;20037;-68
2023/10/14 06:40:35;;;;;;;1.13;0.63;;;;;;;15.03;91.42;99563.06;5027736;28;20588;-67
2023/10/14 06:43:06;;;;;;;0.80;0.30;;;;;;;14.99;90.29;99570.50;5027163;28;20428;-68
2023/10/14 06:45:32;;;;;;;0.47;0.25;;;;;;;15.03;90.61;99576.63;5043362;28;20185;-68
2023/10/14 06:47:58;;;;;;;1.10;0.60;;;;;;;15.05;90.06;99579.69;5025953;28;20836;-68
2023/10/14 06:50:24;;;;;;;0.73;0.22;;;;;;;14.92;90.25;99584.16;5030295;28;20048;-68
2023/10/14 06:52:53;;;;;;;5.45;0.68;;;;;;;14.99;90.06;99581.34;5029610;28;20107;-68
2023/10/14 06:55:22;;;;;;;3.47;0.50;;;;;;;14.97;89.57;99589.88;5026942;28;20111;-68
2023/10/14 06:57:54;;;;;;;1.67;0.32;;;;;;;15.06;90.12;99589.38;5029052;28;20087;-70
2023/10/14 07:00:29;;;;;;;3.22;0.50;;;;;;;15.07;89.45;99599.03;5028398;28;20382;-67
2023/10/14 07:02:59;;;;;;;4.95;0.95;;;;;;;15.06;89.29;99605.66;5029176;28;20040;-67
2023/10/14 07:05:29;;;;;;;3.35;0.60;;;;;;;15.09;89.31;99613.72;5029359;28;20033;-68
2023/10/14 07:07:58;;;;;;;3.22;0.88;;;;;;;15.17;89.36;99614.38;5028427;28;20032;-68
2023/10/14 07:10:32;;;;;;;0.45;0.20;;;;;;;15.29;89.04;99625.41;5025484;28;20050;-69
2023/10/14 07:13:00;;;;;;;1.38;0.32;;;;;;;15.31;88.79;99630.44;5028652;28;20963;-68
2023/10/14 07:15:31;;;;;;;2.20;0.73;;;;;;;15.34;88.38;99626.91;5030108;28;20044;-69
2023/10/14 07:17:59;;;;;;;1.53;0.50;;;;;;;15.43;88.11;99631.84;5026979;28;20402;-68
2023/10/14 07:20:34;;;;;;;0.22;0.20;;;;;;;15.42;88.07;99638.44;5030696;28;20109;-68
2023/10/14 07:23:02;;;;;;;1.95;0.40;;;;;;;15.55;88.23;99645.59;5030389;28;20037;-68
2023/10/14 07:25:32;;;;;;;3.85;0.30;;;;;;;15.81;87.60;99655.63;5028956;28;20108;-68
2023/10/14 07:27:59;;;;;;;2.63;0.90;;;;;;;15.95;86.64;99663.50;5008699;28;20037;-69
2023/10/14 07:30:27;;;;;;;2.03;0.60;;;;;;;16.19;86.76;99678.59;5030337;28;20040;-69
2023/10/14 07:32:57;;;;;;;1.45;0.22;;;;;;;16.43;85.71;99684.00;5034082;28;20026;-68
2023/10/14 07:35:24;;;;;;;6.40;0.50;;;;;;;16.53;84.72;99683.78;5034739;28;20517;-68
2023/10/14 07:37:51;;;;;;;2.88;0.40;;;;;;;16.52;83.31;99689.66;5036652;28;20046;-67
2023/10/14 07:40:24;;;;;;;3.58;0.45;;;;;;;16.37;83.07;99683.72;5031714;28;20028;-68
2023/10/14 07:42:54;;;;;;;2.20;0.52;;;;;;;16.24;82.87;99690.91;5037640;28;20440;-68
2023/10/14 07:45:22;;;;;;;1.05;0.50;;;;;;;16.19;82.03;99700.34;5036992;28;20497;-67
2023/10/14 07:47:49;;;;;;;2.00;0.40;;;;;;;16.04;82.46;99701.00;5034520;28;20021;-68
2023/10/14 07:50:15;;;;;;;1.98;0.40;;;;;;;16.05;83.47;99702.53;5035725;28;20045;-67
2023/10/14 07:52:43;;;;;;;8.07;0.90;;;;;;;16.16;83.75;99709.31;5030056;28;20056;-68
2023/10/14 07:55:15;;;;;;;4.40;0.73;;;;;;;16.32;83.26;99716.78;5034616;28;20029;-68
2023/10/14 07:57:42;;;;;;;1.90;0.32;;;;;;;16.42;82.86;99720.50;5028214;28;20030;-66
2023/10/14 08:00:14;;;;;;;1.00;0.30;;;;;;;16.46;83.18;99719.25;5029873;28;20029;-68
2023/10/14 08:02:41;;;;;;;4.07;0.55;;;;;;;16.67;82.12;99731.69;5032379;28;20040;-69
2023/10/14 08:05:08;;;;;;;2.20;0.38;;;;;;;16.68;81.87;99739.44;5034512;28;20033;-68
2023/10/14 08:07:42;;;;;;;0.70;0.30;;;;;;;16.80;80.98;99736.09;5035952;28;20041;-68
2023/10/14 08:10:17;;;;;;;1.35;0.40;;;;;;;16.95;80.11;99750.94;5034524;28;20136;-66
2023/10/14 08:12:50;;;;;;;7.10;0.57;;;;;;;17.02;80.25;99753.53;5037537;28;20033;-68
2023/10/14 08:15:20;;;;;;;3.97;0.80;;;;;;;17.07;80.03;99755.00;5034786;28;20034;-68
2023/10/14 08:17:48;;;;;;;2.83;0.22;;;;;;;17.07;79.64;99757.72;5028362;28;20580;-68
2023/10/14 08:20:14;;;;;;;0.70;0.45;;;;;;;17.15;78.20;99761.78;5034674;28;20033;-69
2023/10/14 08:22:41;;;;;;;1.80;0.25;;;;;;;17.14;77.95;99763.00;5032580;28;20064;-68
2023/10/14 08:25:07;;;;;;;3.03;0.40;;;;;;;17.14;78.69;99769.22;5033273;28;20149;-69
2023/10/14 08:27:34;;;;;;;1.45;0.30;;;;;;;16.99;77.91;99775.34;5035473;28;20025;-68
2023/10/14 08:30:01;;;;;;;1.38;0.55;;;;;;;17.07;78.41;99776.75;5034439;28;20030;-68
2023/10/14 08:32:27;;;;;;;1.88;0.43;;;;;;;17.14;78.31;99792.94;5034768;28;20033;-69
2023/10/14 08:34:52;;;;;;;3.05;0.30;;;;;;;17.13;77.96;99791.38;5035553;28;20025;-68
2023/10/14 08:37:18;;;;;;;5.10;0.65;;;;;;;16.92;77.02;99786.38;5035097;28;20520;-68
2023/10/14 08:39:44;;;;;;;0.88;0.38;;;;;;;17.06;77.56;99786.88;5031299;28;20030;-69
2023/10/14 08:42:10;;;;;;;2.53;0.50;;;;;;;17.24;77.40;99791.94;5033172;28;20117;-69
2023/10/14 08:44:42;;;;;;;6.07;0.52;;;;;;;17.40;77.09;99804.84;5030774;28;20064;-69
2023/10/14 08:47:13;;;;;;;2.58;0.70;;;;;;;17.59;76.28;99821.16;5046315;28;20045;-69
2023/10/14 08:49:42;;;;;;;1.63;0.53;;;;;;;17.51;76.15;99827.97;5033904;28;20033;-69
2023/10/14 08:52:16;;;;;;;3.90;0.30;;;;;;;17.47;75.54;99829.19;5030675;28;20303;-69
2023/10/14 08:54:42;;;;;;;0.77;0.43;;;;;;;17.25;75.75;99837.00;5031169;28;20041;-68
2023/10/14 08:57:09;;;;;;;2.85;0.40;;;;;;;17.15;76.01;99830.59;5027860;28;20513;-69
2023/10/14 08:59:34;;;;;;;1.73;0.47;;;;;;;17.09;75.19;99839.69;5031811;28;20041;-68
2023/10/14 09:02:00;;;;;;;8.00;0.50;;;;;;;17.03;74.97;99833.94;5032519;28;20033;-68
2023/10/14 09:04:29;;;;;;;2.38;0.47;;;;;;;17.08;75.46;99830.75;5028242;28;20036;-69
2023/10/14 09:07:12;;;;;;;1.48;0.30;;;;;;;17.26;76.26;99835.84;5029193;28;20095;-69
2023/10/14 09:09:38;;;;;;;1.55;0.38;;;;;;;17.58;75.78;99849.56;5027324;28;20128;-69
2023/10/14 09:12:10;;;;;;;3.10;0.47;;;;;;;17.83;72.96;99857.19;5031201;28;20109;-69
2023/10/14 09:14:37;;;;;;;2.47;0.30;;;;;;;17.97;72.45;99862.34;5030304;28;20044;-69
2023/10/14 09:17:10;;;;;;;2.25;0.32;;;;;;;18.11;72.44;99859.28;5030991;28;20021;-68
2023/10/14 09:19:51;;;;;;;1.70;0.47;;;;;;;18.19;71.13;99863.41;5032502;28;20421;-69
2023/10/14 09:22:26;;;;;;;1.70;0.20;;;;;;;18.02;69.65;99873.50;5025519;28;20030;-68
2023/10/14 09:24:58;;;;;;;5.35;0.32;;;;;;;17.93;69.00;99867.88;5025868;28;20400;-69
2023/10/14 09:27:26;;;;;;;1.00;0.30;;;;;;;18.01;68.96;99877.44;5031250;28;20509;-69
2023/10/14 09:29:56;;;;;;;2.28;0.50;;;;;;;18.02;68.83;99873.50;5028242;28;20030;-69
2023/10/14 09:32:22;;;;;;;1.63;0.32;;;;;;;18.02;68.40;99884.41;5029730;28;20669;-69
2023/10/14 09:34:51;;;;;;;2.50;0.32;;;;;;;18.10;68.86;99876.09;5010730;28;20041;-68
2023/10/14 09:37:21;;;;;;;4.70;0.63;;;;;;;18.30;67.72;99874.03;5026843;28;20176;-68
2023/10/14 09:39:49;;;;;;;8.50;0.52;;;;;;;18.39;67.24;99882.41;5030768;28;20132;-69
2023/10/14 09:42:20;;;;;;;0.65;0.15;;;;;;;18.37;66.06;99888.25;5030342;28;20175;-68
2023/10/14 09:44:47;;;;;;;2.55;0.50;;;;;;;18.53;65.99;99880.13;5030743;28;20107;-68
2023/10/14 09:47:15;;;;;;;1.30;0.43;;;;;;;18.51;65.33;99877.06;5028821;28;20025;-69
2023/10/14 09:49:43;;;;;;;1.02;0.45;;;;;;;18.37;65.58;99892.97;5027345;28;20664;-68
2023/10/14 09:52:14;;;;;;;2.30;0.88;;;;;;;18.31;64.04;99894.66;5025148;28;20173;-69
2023/10/14 09:54:40;;;;;;;;;;;;;;;18.16;63.95;99899.66;5030473;28;20040;-69
2023/10/14 09:57:12;;;;;;;1.58;0.28;;;;;;;18.01;64.47;99895.72;5025358;28;19921;-68
2023/10/14 09:59:41;;;;;;;9.43;0.50;;;;;;;18.11;64.92;99902.13;5012492;28;20037;-69
2023/10/14 10:02:09;;;;;;;2.55;0.30;;;;;;;18.00;64.66;99902.38;5028130;28;20113;-69
2023/10/14 10:04:40;;;;;;;1.08;0.40;;;;;;;18.08;64.96;99906.47;5028955;28;20040;-68
2023/10/14 10:07:06;;;;;;;2.83;0.45;;;;;;;18.18;64.92;99908.19;5023511;28;20033;-69
2023/10/14 10:09:47;;;;;;;1.67;0.20;;;;;;;18.14;65.04;99912.19;5029685;28;20087;-68
2023/10/14 10:12:15;;;;;;;2.75;0.43;;;;;;;18.15;64.78;99913.72;5024956;28;20068;-68
2023/10/14 10:14:43;;;;;;;2.60;0.45;;;;;;;18.23;63.74;99917.81;5029074;28;20048;-70
2023/10/14 10:17:14;;;;;;;3.13;0.50;;;;;;;18.25;63.27;99940.75;5028248;28;20034;-68
2023/10/14 10:20:00;;;;;;;;;;;;;;;18.34;63.64;99940.16;5028596;28;20033;-69
2023/10/14 10:22:52;;;;;;;5.93;0.90;;;;;;;18.47;63.00;99941.03;5026949;28;19995;-68
2023/10/14 10:25:21;;;;;;;1.98;0.40;;;;;;;18.32;63.08;99945.25;5029602;28;20421;-69
2023/10/14 10:27:52;;;;;;;0.22;0.22;;;;;;;18.51;63.50;99985.38;5029272;28;20095;-68
2023/10/14 10:30:19;;;;;;;1.77;0.25;;;;;;;18.44;62.50;100004.63;5013195;28;20029;-69
2023/10/14 10:32:49;;;;;;;1.13;0.30;;;;;;;18.09;62.52;100018.97;5024925;28;20095;-69
2023/10/14 10:35:17;;;;;;;0.60;0.20;;;;;;;17.67;65.31;100010.47;5025028;28;20029;-68
2023/10/14 10:37:46;;;;;;;1.08;0.08;;;;;;;17.26;66.36;100012.75;5026973;28;20047;-69
2023/10/14 10:40:13;;;;;;;2.70;0.20;;;;;;;16.98;69.75;100010.50;5026044;28;20037;-69
2023/10/14 10:42:45;;;;;;;0.20;0.20;;;;;;;16.83;70.95;100004.53;5028840;28;20033;-69
2023/10/14 10:45:42;;;;;;;;;;;;;;;16.57;73.48;100004.56;5024488;28;20025;-69
2023/10/14 10:48:14;;;;;;;0.75;0.20;;;;;;;16.49;73.38;100003.09;5012895;28;19970;-69
2023/10/14 10:50:40;;;;;;;;;;;;;;;16.49;73.16;100016.69;5024706;28;20032;-70
2023/10/14 10:53:06;;;;;;;1.35;0.35;;;;;;;16.50;72.28;100021.72;5027877;28;19915;-70
2023/10/14 10:55:36;;;;;;;2.08;0.28;;;;;;;16.58;71.45;100011.50;5023672;28;20479;-68
2023/10/14 10:58:04;;;;;;;0.85;0.08;;;;;;;16.74;71.45;100015.13;5025140;28;20745;-69
2023/10/14 11:00:30;;;;;;;2.78;0.28;;;;;;;16.77;70.91;100024.44;5028020;28;20033;-69
2023/10/14 11:02:56;;;;;;;1.25;0.60;;;;;;;16.83;71.26;100029.00;5021928;28;20116;-69
2023/10/14 11:05:24;;;;;;;0.70;0.10;;;;;;;16.95;69.77;100025.72;5023550;28;20300;-69
2023/10/14 11:07:54;;;;;;;2.83;0.30;;;;;;;17.08;69.10;100034.03;5028100;28;20110;-69
2023/10/14 11:10:23;;;;;;;0.43;0.30;;;;;;;17.21;69.37;100031.53;5009626;28;20375;-69
2023/10/14 11:12:49;;;;;;;5.30;0.20;;;;;;;17.32;67.91;100027.44;5020715;28;20037;-68
2023/10/14 11:15:22;;;;;;;2.15;0.10;;;;;;;17.45;67.67;100028.34;5027042;28;20398;-68
2023/10/14 11:17:58;;;;;;;1.25;0.15;;;;;;;17.52;67.71;100030.97;5025067;28;20061;-69
2023/10/14 11:20:27;;;;;;;2.22;0.20;;;;;;;17.62;66.69;100040.91;5040530;28;20040;-69
2023/10/14 11:22:57;;;;;;;0.45;0.20;;;;;;;17.45;64.65;100035.75;5024375;28;20025;-67
2023/10/14 11:25:22;;;;;;;0.55;0.30;;;;;;;17.38;66.39;100042.06;5024426;28;20037;-69
2023/10/14 11:27:48;;;;;;;1.67;0.20;;;;;;;17.25;66.79;100048.56;5022467;28;20387;-68
2023/10/14 11:30:15;;;;;;;1.38;0.10;;;;;;;17.21;65.14;100045.88;5022082;28;20025;-68
2023/10/14 11:32:48;;;;;;;0.80;0.10;;;;;;;17.26;65.52;100045.41;5023083;28;20033;-69
2023/10/14 11:35:16;;;;;;;0.10;0.10;;;;;;;17.36;65.41;100041.75;5023555;28;20057;-69
2023/10/14 11:37:42;;;;;;;0.80;0.20;;;;;;;17.56;65.86;100042.56;5028699;28;20474;-68
2023/10/14 11:40:14;;;;;;;0.40;0.10;;;;;;;17.56;65.41;100048.03;5022555;28;20108;-69
2023/10/14 11:42:41;;;;;;;1.55;0.30;;;;;;;17.66;64.50;100043.56;5025743;28;20418;-69
2023/10/14 11:45:07;;;;;;;3.40;0.30;;;;;;;17.59;63.50;100117.22;5026866;28;20095;-68
2023/10/14 11:47:36;;;;;;;0.32;0.20;;;;;;;17.18;66.33;100147.41;5024479;28;20034;-70
2023/10/14 11:50:11;;;;;;;2.60;0.03;;;;;;;16.60;70.31;100117.91;5022065;28;20091;-68
2023/10/14 11:52:39;;;;;;;2.95;0.25;;;;;;;16.10;74.36;100123.16;5025212;28;20084;-69
2023/10/14 11:55:05;;;;;;;4.18;0.22;;;;;;;15.87;75.30;100096.59;5026554;28;20026;-69
2023/10/14 11:57:31;;;;;;;0.25;0.10;;;;;;;15.74;75.78;100092.84;5025264;28;20116;-68
2023/10/14 11:59:58;;;;;;;1.17;0.32;;;;;;;15.50;77.60;100074.88;5026612;28;20421;-69
2023/10/14 12:02:27;;;;;;;0.25;0.20;;;;;;;15.44;78.96;100071.03;5039482;28;20233;-69
2023/10/14 12:04:53;;;;;;;0.82;0.28;;;;;;;15.58;79.90;100070.88;5027159;28;20509;-68
2023/10/14 12:07:21;;;;;;;1.52;0.25;;;;;;;15.82;80.21;100077.25;5018835;28;20041;-69
2023/10/14 12:09:47;;;;;;;0.28;0.10;;;;;;;15.95;80.66;100068.19;5006349;28;20026;-68
2023/10/14 12:12:12;;;;;;;0.10;0.10;;;;;;;16.09;80.55;100065.31;5025386;28;20045;-68
2023/10/14 12:14:38;;;;;;;0.10;0.10;;;;;;;16.14;80.38;100064.84;5021183;28;20453;-68
2023/10/14 12:17:04;;;;;;;1.33;0.10;;;;;;;16.11;80.36;100065.69;5020821;28;20044;-68
2023/10/14 12:19:30;;;;;;;0.20;0.13;;;;;;;16.22;79.79;100057.38;5024222;28;20061;-67
2023/10/14 12:21:56;;;;;;;0.08;0.03;;;;;;;16.22;79.65;100057.38;5023832;28;20033;-68